Time;durP1;ratioP1;P1;durP2;ratioP2;P2;SDS_P1;SDS_P2;PMS_P1;PMS_P2;Temp;Humidity;BMP_temperature;BMP_pressure;BME280_temperature;BME280_humidity;BME280_pressure;Samples;Min_cycle;Max_cycle;Signal;HPM_P1;HPM_P2
2023/08/28 00:02:20;;;;;;;3.37;0.83;;;21.70;67.70;;;;;;6110754;23;20503;-67
2023/08/28 00:04:49;;;;;;;1.07;0.70;;;21.70;67.80;;;;;;6110659;23;20480;-67
2023/08/28 00:07:17;;;;;;;1.30;1.00;;;21.70;67.80;;;;;;6110689;23;20453;-67
2023/08/28 00:09:45;;;;;;;1.17;0.70;;;21.70;67.90;;;;;;6110176;23;20438;-67
2023/08/28 00:12:15;;;;;;;1.00;0.80;;;21.70;67.80;;;;;;6111198;23;20901;-67
2023/08/28 00:14:43;;;;;;;1.20;0.70;;;21.70;67.80;;;;;;6111026;23;20488;-67
2023/08/28 00:17:12;;;;;;;1.00;0.60;;;21.70;67.80;;;;;;6111286;23;20697;-67
2023/08/28 00:19:40;;;;;;;1.00;0.70;;;21.70;67.80;;;;;;6110267;23;20916;-67
2023/08/28 00:22:08;;;;;;;1.00;0.60;;;21.70;67.80;;;;;;6110244;23;21159;-67
2023/08/28 00:24:37;;;;;;;1.40;0.93;;;21.70;67.80;;;;;;6110001;23;20438;-66
2023/08/28 00:27:06;;;;;;;1.10;0.60;;;21.60;67.80;;;;;;6112635;23;20488;-67
2023/08/28 00:29:35;;;;;;;1.23;0.80;;;21.60;67.70;;;;;;6111424;23;20825;-67
2023/08/28 00:32:04;;;;;;;0.90;0.60;;;21.60;67.80;;;;;;6112003;23;20891;-67
2023/08/28 00:34:33;;;;;;;1.10;0.70;;;21.60;67.80;;;;;;6110593;23;20441;-67
2023/08/28 00:37:01;;;;;;;1.30;0.80;;;21.60;67.70;;;;;;6111560;23;20916;-67
2023/08/28 00:39:29;;;;;;;1.07;0.70;;;21.60;67.70;;;;;;6112212;23;20430;-67
2023/08/28 00:41:57;;;;;;;1.20;0.80;;;21.60;67.60;;;;;;6112610;23;20429;-67
2023/08/28 00:44:26;;;;;;;1.13;0.50;;;21.60;67.60;;;;;;6111751;23;20383;-67
2023/08/28 00:46:56;;;;;;;1.20;0.70;;;21.60;67.60;;;;;;6113009;23;20796;-67
2023/08/28 00:49:25;;;;;;;1.20;0.90;;;21.60;67.80;;;;;;6112277;23;20399;-67
2023/08/28 00:51:55;;;;;;;1.20;0.67;;;21.60;67.80;;;;;;6113321;23;20405;-67
2023/08/28 00:54:23;;;;;;;1.20;0.60;;;21.60;67.80;;;;;;6111678;23;20410;-67
2023/08/28 00:56:55;;;;;;;3.47;0.97;;;21.60;67.80;;;;;;6112491;23;20417;-67
2023/08/28 00:59:23;;;;;;;0.87;0.53;;;21.60;67.60;;;;;;6111772;23;20940;-67
2023/08/28 01:01:52;;;;;;;1.00;0.90;;;21.60;67.60;;;;;;6112093;23;20462;-68
2023/08/28 01:04:21;;;;;;;1.00;0.70;;;21.60;67.60;;;;;;6111949;23;20399;-68
2023/08/28 01:06:57;;;;;;;1.07;0.60;;;21.60;67.70;;;;;;6111965;23;20403;-68
2023/08/28 01:09:34;;;;;;;0.90;0.50;;;21.60;67.70;;;;;;6111950;23;20500;-68
2023/08/28 01:12:13;;;;;;;1.00;0.47;;;21.60;67.70;;;;;;6112695;23;20386;-68
2023/08/28 01:14:50;;;;;;;1.00;0.70;;;21.60;67.80;;;;;;6110426;23;20533;-67
2023/08/28 01:17:23;;;;;;;1.47;0.60;;;21.60;67.80;;;;;;6112323;23;20476;-67
2023/08/28 01:19:55;;;;;;;1.20;0.60;;;21.50;67.60;;;;;;6111399;23;20843;-68
2023/08/28 01:22:29;;;;;;;1.23;0.67;;;21.60;67.70;;;;;;6108445;23;20476;-68
2023/08/28 01:25:05;;;;;;;1.60;0.63;;;21.50;67.70;;;;;;6111349;23;20479;-68
2023/08/28 01:27:34;;;;;;;1.67;0.73;;;21.50;67.70;;;;;;6112681;23;20414;-68
2023/08/28 01:30:07;;;;;;;0.80;0.50;;;21.50;67.70;;;;;;6110707;23;20793;-68
2023/08/28 01:32:36;;;;;;;1.40;0.90;;;21.50;67.80;;;;;;6112542;23;20946;-68
2023/08/28 01:35:08;;;;;;;1.17;0.60;;;21.50;68.00;;;;;;6109748;23;20434;-68
2023/08/28 01:37:49;;;;;;;1.83;0.70;;;21.50;67.70;;;;;;6112018;23;20703;-68
2023/08/28 01:40:24;;;;;;;1.00;0.63;;;21.50;67.70;;;;;;6112853;23;21028;-67
2023/08/28 01:42:53;;;;;;;1.23;0.70;;;21.50;67.80;;;;;;6111908;23;20923;-67
2023/08/28 01:45:23;;;;;;;1.67;0.60;;;21.50;67.70;;;;;;6110685;23;20517;-68
2023/08/28 01:47:51;;;;;;;1.50;0.80;;;21.50;67.70;;;;;;6112798;23;20590;-68
2023/08/28 01:50:20;;;;;;;0.90;0.60;;;21.50;67.80;;;;;;6112216;23;21203;-67
2023/08/28 01:52:48;;;;;;;1.07;0.70;;;21.50;67.70;;;;;;6113493;23;20490;-68
2023/08/28 01:55:16;;;;;;;1.40;0.80;;;21.50;67.70;;;;;;6113466;23;20488;-67
2023/08/28 01:57:46;;;;;;;1.00;0.70;;;21.50;67.70;;;;;;6112667;23;20403;-68
2023/08/28 02:00:15;;;;;;;1.03;0.63;;;21.50;67.80;;;;;;6110452;23;20487;-68
2023/08/28 02:02:49;;;;;;;0.87;0.70;;;21.50;67.70;;;;;;6115658;23;20416;-68
2023/08/28 02:05:17;;;;;;;1.00;0.70;;;21.50;67.70;;;;;;6114014;23;20521;-68
2023/08/28 02:07:46;;;;;;;1.20;0.60;;;21.50;67.80;;;;;;6115328;23;20419;-67
2023/08/28 02:10:15;;;;;;;1.20;0.80;;;21.40;67.60;;;;;;6114602;23;20438;-68
2023/08/28 02:12:43;;;;;;;1.87;1.03;;;21.40;67.70;;;;;;6115782;23;20721;-68
2023/08/28 02:15:12;;;;;;;1.33;0.67;;;21.40;67.70;;;;;;6113915;23;20434;-67
2023/08/28 02:17:41;;;;;;;1.97;0.90;;;21.40;67.80;;;;;;6115895;23;20410;-68
2023/08/28 02:20:10;;;;;;;1.07;0.87;;;21.40;67.80;;;;;;6113779;23;20437;-68
2023/08/28 02:22:38;;;;;;;1.30;0.80;;;21.40;67.80;;;;;;6115741;23;20426;-67
2023/08/28 02:25:07;;;;;;;1.97;0.70;;;21.40;67.80;;;;;;6090480;23;20430;-67
2023/08/28 02:27:36;;;;;;;1.50;1.03;;;21.40;67.80;;;;;;6115405;23;20946;-68
2023/08/28 02:30:07;;;;;;;0.97;0.57;;;21.40;67.80;;;;;;6113895;23;20430;-68
2023/08/28 02:32:37;;;;;;;1.37;0.93;;;21.40;67.90;;;;;;6115900;23;20717;-68
2023/08/28 02:35:06;;;;;;;1.33;0.70;;;21.40;67.80;;;;;;6113844;23;20537;-68
2023/08/28 02:37:34;;;;;;;1.30;0.73;;;21.40;67.80;;;;;;6115703;23;20423;-68
2023/08/28 02:40:04;;;;;;;1.00;0.50;;;21.40;67.80;;;;;;6114910;23;20439;-68
2023/08/28 02:42:32;;;;;;;1.10;0.80;;;21.40;67.80;;;;;;6115952;23;20449;-68
2023/08/28 02:45:01;;;;;;;0.87;0.60;;;21.40;67.80;;;;;;6114636;23;20435;-66
2023/08/28 02:47:30;;;;;;;1.17;0.77;;;21.40;67.90;;;;;;6115838;23;20484;-68
2023/08/28 02:50:00;;;;;;;1.20;0.60;;;21.30;67.70;;;;;;6114994;23;20525;-67
2023/08/28 02:52:28;;;;;;;1.83;0.70;;;21.30;67.80;;;;;;6115002;23;20432;-68
2023/08/28 02:54:56;;;;;;;1.37;0.77;;;21.40;67.90;;;;;;6114585;23;20431;-68
2023/08/28 02:57:25;;;;;;;0.93;0.70;;;21.30;67.70;;;;;;6115656;23;20742;-68
2023/08/28 02:59:53;;;;;;;1.47;0.60;;;21.30;67.70;;;;;;6114034;23;20438;-68
2023/08/28 03:02:21;;;;;;;1.00;0.70;;;21.30;67.70;;;;;;6113733;23;20426;-68
2023/08/28 03:04:50;;;;;;;1.07;0.70;;;21.30;67.80;;;;;;6112696;23;20434;-68
2023/08/28 03:07:20;;;;;;;0.90;0.60;;;21.30;67.60;;;;;;6112224;23;20418;-68
2023/08/28 03:09:48;;;;;;;2.13;0.60;;;21.30;67.80;;;;;;6111188;23;20509;-67
2023/08/28 03:12:16;;;;;;;1.20;0.73;;;21.30;67.70;;;;;;6112101;23;20383;-68
2023/08/28 03:14:45;;;;;;;1.60;0.50;;;21.30;67.80;;;;;;6109925;23;20505;-68
2023/08/28 03:17:13;;;;;;;1.30;0.60;;;21.30;67.80;;;;;;6112271;23;20465;-68
2023/08/28 03:19:42;;;;;;;1.10;0.70;;;21.30;67.80;;;;;;6112030;23;20507;-68
2023/08/28 03:22:12;;;;;;;1.00;0.67;;;21.30;67.80;;;;;;6111241;23;20912;-68
2023/08/28 03:24:41;;;;;;;2.33;0.93;;;21.30;67.90;;;;;;6110539;23;20983;-67
2023/08/28 03:27:10;;;;;;;1.03;0.77;;;21.30;67.90;;;;;;6113098;23;20600;-68
2023/08/28 03:29:38;;;;;;;0.90;0.50;;;21.20;67.80;;;;;;6112082;23;20952;-68
2023/08/28 03:32:06;;;;;;;1.40;0.70;;;21.20;67.80;;;;;;6112179;23;20398;-67
2023/08/28 03:34:35;;;;;;;1.30;0.90;;;21.20;67.70;;;;;;6110686;23;20437;-67
2023/08/28 03:37:03;;;;;;;1.33;0.83;;;21.20;67.80;;;;;;6110824;23;20441;-68
2023/08/28 03:39:32;;;;;;;1.10;0.60;;;21.20;67.80;;;;;;6111185;23;20807;-68
2023/08/28 03:42:02;;;;;;;1.07;0.60;;;21.20;67.90;;;;;;6111890;23;20425;-67
2023/08/28 03:44:30;;;;;;;0.90;0.67;;;21.20;67.90;;;;;;6111899;23;20438;-67
2023/08/28 03:46:58;;;;;;;0.87;0.57;;;21.20;68.00;;;;;;6112708;23;20783;-67
2023/08/28 03:49:28;;;;;;;1.20;0.80;;;21.20;67.90;;;;;;6111616;23;20438;-68
2023/08/28 03:51:59;;;;;;;1.10;0.60;;;21.20;67.90;;;;;;6111157;23;20951;-68
2023/08/28 03:54:28;;;;;;;1.97;0.70;;;21.20;67.80;;;;;;6111872;23;20383;-67
2023/08/28 03:56:58;;;;;;;1.53;0.80;;;21.20;67.70;;;;;;6112591;23;20423;-67
2023/08/28 03:59:28;;;;;;;1.10;0.70;;;21.20;67.80;;;;;;6087054;23;20955;-68
2023/08/28 04:01:56;;;;;;;1.00;0.70;;;21.20;67.60;;;;;;6112166;23;20455;-67
2023/08/28 04:04:26;;;;;;;0.90;0.77;;;21.10;67.80;;;;;;6112399;23;20795;-68
2023/08/28 04:06:54;;;;;;;1.10;0.77;;;21.10;67.50;;;;;;6112928;23;20398;-68
2023/08/28 04:09:23;;;;;;;2.20;1.30;;;21.10;67.60;;;;;;6113076;23;20398;-67
2023/08/28 04:11:51;;;;;;;1.30;0.80;;;21.10;67.50;;;;;;6113387;23;20762;-68
2023/08/28 04:14:20;;;;;;;1.57;0.90;;;21.10;67.60;;;;;;6086884;23;20442;-67
2023/08/28 04:16:50;;;;;;;1.53;0.97;;;21.10;67.60;;;;;;6113923;23;20390;-67
2023/08/28 04:19:18;;;;;;;1.20;1.00;;;21.10;67.60;;;;;;6113242;23;20712;-67
2023/08/28 04:21:46;;;;;;;1.30;1.10;;;21.10;67.70;;;;;;6112693;23;20436;-67
2023/08/28 04:24:15;;;;;;;0.90;0.70;;;21.10;67.70;;;;;;6112746;23;20430;-67
2023/08/28 04:26:43;;;;;;;1.93;0.80;;;21.10;67.70;;;;;;6112636;23;20383;-66
2023/08/28 04:29:13;;;;;;;1.30;0.80;;;21.10;67.70;;;;;;6112731;23;20399;-67
2023/08/28 04:31:41;;;;;;;1.00;0.67;;;21.10;67.80;;;;;;6112754;23;20391;-67
2023/08/28 04:34:11;;;;;;;1.00;0.50;;;21.10;67.90;;;;;;6111590;23;20440;-67
2023/08/28 04:36:39;;;;;;;1.47;0.87;;;21.00;67.80;;;;;;6112044;23;20452;-67
2023/08/28 04:39:07;;;;;;;1.43;0.53;;;21.10;67.90;;;;;;6113024;23;20394;-67
2023/08/28 04:41:35;;;;;;;1.37;0.83;;;21.10;68.00;;;;;;6112358;23;20464;-67
2023/08/28 04:44:04;;;;;;;1.10;0.90;;;21.00;67.70;;;;;;6110477;23;20912;-67
2023/08/28 04:46:33;;;;;;;1.20;0.70;;;21.00;67.70;;;;;;6112456;23;20395;-68
2023/08/28 04:49:04;;;;;;;1.00;0.60;;;21.00;67.70;;;;;;6112678;23;20422;-67
2023/08/28 04:51:34;;;;;;;1.47;0.90;;;21.00;67.80;;;;;;6112192;23;20417;-67
2023/08/28 04:54:02;;;;;;;1.33;0.87;;;21.00;68.90;;;;;;6110948;23;21173;-67
2023/08/28 04:56:31;;;;;;;1.23;0.77;;;21.00;67.60;;;;;;6112023;23;20367;-67
2023/08/28 04:58:59;;;;;;;0.90;0.73;;;21.00;67.50;;;;;;6112203;23;20429;-67
2023/08/28 05:01:29;;;;;;;0.80;0.53;;;21.00;67.60;;;;;;6112754;23;20452;-67
2023/08/28 05:03:57;;;;;;;1.17;0.90;;;21.00;67.50;;;;;;6111118;23;20431;-67
2023/08/28 05:06:26;;;;;;;1.07;0.83;;;21.00;67.40;;;;;;6112629;23;20449;-67
2023/08/28 05:08:55;;;;;;;1.30;0.70;;;21.00;67.60;;;;;;6088104;23;20753;-68
2023/08/28 05:11:24;;;;;;;1.30;0.93;;;20.90;67.40;;;;;;6112556;23;20460;-68
2023/08/28 05:13:53;;;;;;;1.33;0.60;;;20.90;67.50;;;;;;6111687;23;20434;-67
2023/08/28 05:16:21;;;;;;;1.50;0.80;;;20.90;67.50;;;;;;6112806;23;20690;-67
2023/08/28 05:18:49;;;;;;;1.20;0.70;;;20.90;67.70;;;;;;6113037;23;20437;-68
2023/08/28 05:21:18;;;;;;;1.43;0.80;;;21.00;67.80;;;;;;6112233;23;20911;-68
2023/08/28 05:23:46;;;;;;;1.23;0.70;;;20.90;67.60;;;;;;6111613;23;20452;-67
2023/08/28 05:26:16;;;;;;;1.30;0.57;;;20.90;67.70;;;;;;6112803;23;20637;-67
2023/08/28 05:28:45;;;;;;;1.40;0.90;;;20.90;67.60;;;;;;6112083;23;20419;-67
2023/08/28 05:31:13;;;;;;;1.40;0.83;;;20.90;67.50;;;;;;6088157;23;20395;-67
2023/08/28 05:33:42;;;;;;;1.43;0.80;;;20.90;67.50;;;;;;6112459;23;20645;-67
2023/08/28 05:36:15;;;;;;;1.20;0.70;;;20.90;67.70;;;;;;6125900;23;20461;-67
2023/08/28 05:38:46;;;;;;;1.10;0.73;;;20.90;67.60;;;;;;6134628;23;20437;-67
2023/08/28 05:41:19;;;;;;;0.90;0.50;;;20.90;67.50;;;;;;6114783;23;20505;-66
2023/08/28 05:43:48;;;;;;;1.27;0.70;;;20.90;67.70;;;;;;6111532;23;20467;-67
2023/08/28 05:46:16;;;;;;;1.30;0.70;;;20.80;67.70;;;;;;6112130;23;20444;-67
2023/08/28 05:48:44;;;;;;;1.20;0.80;;;20.80;67.40;;;;;;6110894;23;20902;-67
2023/08/28 05:51:13;;;;;;;1.27;1.17;;;20.80;67.90;;;;;;6111864;23;20785;-67
2023/08/28 05:53:43;;;;;;;1.20;0.70;;;20.80;67.60;;;;;;6112338;23;20394;-67
2023/08/28 05:56:12;;;;;;;2.13;1.20;;;20.80;67.60;;;;;;6112847;23;20394;-67
2023/08/28 05:58:43;;;;;;;1.63;0.80;;;20.80;67.50;;;;;;6111697;23;20442;-67
2023/08/28 06:01:11;;;;;;;1.20;0.80;;;20.80;67.70;;;;;;6112612;23;20469;-67
2023/08/28 06:03:39;;;;;;;1.10;0.70;;;20.80;67.60;;;;;;6111579;23;20896;-67
2023/08/28 06:06:12;;;;;;;1.80;0.90;;;20.80;67.70;;;;;;6112121;23;20375;-67
2023/08/28 06:08:40;;;;;;;1.53;1.30;;;20.80;67.60;;;;;;6112544;23;20472;-67
2023/08/28 06:11:09;;;;;;;1.33;0.83;;;20.80;67.50;;;;;;6112275;23;20925;-67
2023/08/28 06:13:37;;;;;;;1.70;0.90;;;20.70;67.40;;;;;;6110747;23;20390;-67
2023/08/28 06:16:07;;;;;;;1.27;0.90;;;20.80;67.50;;;;;;6113537;23;20398;-67
2023/08/28 06:18:35;;;;;;;1.27;1.17;;;20.70;67.30;;;;;;6111976;23;20932;-67
2023/08/28 06:21:04;;;;;;;1.60;0.63;;;20.80;67.70;;;;;;6111428;23;20388;-67
2023/08/28 06:23:32;;;;;;;1.30;0.80;;;20.70;67.60;;;;;;6110180;23;20460;-67
2023/08/28 06:26:00;;;;;;;3.10;1.20;;;20.70;67.80;;;;;;6111614;23;20398;-67
2023/08/28 06:28:29;;;;;;;1.20;1.00;;;20.70;67.80;;;;;;6111695;23;20477;-67
2023/08/28 06:30:57;;;;;;;1.80;1.30;;;20.70;67.80;;;;;;6266249;22;21016;-67
2023/08/28 06:33:27;;;;;;;1.83;0.87;;;20.70;67.80;;;;;;6267483;22;20382;-67
2023/08/28 06:35:55;;;;;;;1.43;1.00;;;20.70;67.80;;;;;;6111613;23;20414;-67
2023/08/28 06:38:24;;;;;;;1.60;1.03;;;20.70;67.70;;;;;;6112424;23;20934;-66
2023/08/28 06:40:54;;;;;;;1.50;0.93;;;20.70;67.80;;;;;;6111500;23;20438;-66
2023/08/28 06:43:22;;;;;;;1.27;0.80;;;20.70;67.80;;;;;;6111633;23;20407;-66
2023/08/28 06:45:50;;;;;;;1.17;0.80;;;20.70;67.90;;;;;;6111827;22;20882;-67
2023/08/28 06:48:19;;;;;;;2.17;1.00;;;20.70;67.80;;;;;;6111795;23;20432;-67
2023/08/28 06:50:51;;;;;;;1.40;0.97;;;20.70;67.80;;;;;;6110490;23;20914;-66
2023/08/28 06:53:19;;;;;;;1.10;0.90;;;20.70;67.80;;;;;;6111974;23;20386;-66
2023/08/28 06:55:48;;;;;;;1.30;1.00;;;20.70;67.80;;;;;;6111298;22;20438;-67
2023/08/28 06:58:16;;;;;;;3.20;0.80;;;20.70;67.80;;;;;;6112200;23;20800;-67
2023/08/28 07:00:44;;;;;;;1.63;1.07;;;20.70;67.80;;;;;;6110867;23;20434;-67
2023/08/28 07:03:13;;;;;;;1.73;1.27;;;20.70;67.70;;;;;;6111471;23;20888;-66
2023/08/28 07:05:41;;;;;;;1.40;1.07;;;20.70;67.70;;;;;;6110348;22;20472;-66
2023/08/28 07:08:11;;;;;;;1.00;0.70;;;20.70;67.70;;;;;;6112224;23;20402;-67
2023/08/28 07:10:39;;;;;;;1.70;0.90;;;20.70;67.80;;;;;;6112415;23;20491;-67
2023/08/28 07:13:08;;;;;;;1.97;1.00;;;20.70;69.20;;;;;;6111705;23;20401;-67
2023/08/28 07:15:54;;;;;;;1.43;0.80;;;20.60;67.90;;;;;;6110327;23;20706;-66
2023/08/28 07:18:22;;;;;;;1.47;1.00;;;20.70;68.00;;;;;;6111482;23;20958;-67
2023/08/28 07:20:51;;;;;;;1.20;0.90;;;20.70;68.00;;;;;;6110410;22;20434;-67
2023/08/28 07:23:20;;;;;;;1.20;0.83;;;20.70;68.00;;;;;;6110257;23;20440;-67
2023/08/28 07:25:49;;;;;;;1.10;0.90;;;20.60;67.90;;;;;;6111111;23;20449;-67
2023/08/28 07:28:18;;;;;;;1.13;0.80;;;20.70;68.20;;;;;;6111501;23;20426;-67
2023/08/28 07:30:46;;;;;;;1.40;0.90;;;20.60;68.10;;;;;;6110560;22;20465;-67
2023/08/28 07:33:15;;;;;;;1.50;0.90;;;20.70;68.10;;;;;;6111704;23;20470;-67
2023/08/28 07:35:45;;;;;;;1.43;0.80;;;20.60;68.00;;;;;;6112850;23;20466;-67
2023/08/28 07:38:13;;;;;;;1.20;0.70;;;20.70;68.20;;;;;;6113255;23;20421;-67
2023/08/28 07:40:43;;;;;;;1.60;1.20;;;20.70;68.20;;;;;;6112108;22;20438;-67
2023/08/28 07:43:11;;;;;;;1.10;0.73;;;20.70;68.20;;;;;;6113201;23;20387;-67
2023/08/28 07:45:40;;;;;;;1.30;0.97;;;20.70;68.30;;;;;;6087355;23;20485;-67
2023/08/28 07:48:08;;;;;;;1.60;1.03;;;20.70;68.20;;;;;;6113519;23;20418;-66
2023/08/28 07:50:38;;;;;;;1.83;1.07;;;20.70;68.20;;;;;;6110765;23;20496;-67
2023/08/28 07:53:13;;;;;;;1.03;0.80;;;20.60;68.20;;;;;;6112636;23;20376;-67
2023/08/28 07:55:42;;;;;;;1.50;0.70;;;20.60;68.10;;;;;;6089311;22;20434;-73
2023/08/28 07:58:11;;;;;;;1.10;0.80;;;20.60;68.20;;;;;;6088908;23;20456;-73
2023/08/28 08:00:40;;;;;;;1.20;0.93;;;20.70;68.40;;;;;;6112633;23;20443;-73
2023/08/28 08:03:08;;;;;;;1.20;0.73;;;20.60;68.20;;;;;;6112821;23;20897;-73
2023/08/28 08:05:37;;;;;;;1.30;1.20;;;20.60;68.30;;;;;;6111774;23;20442;-73
2023/08/28 08:08:06;;;;;;;1.70;1.17;;;20.60;68.30;;;;;;6113866;23;20460;-67
2023/08/28 08:10:36;;;;;;;1.30;0.80;;;20.60;68.30;;;;;;6112673;23;20936;-67
2023/08/28 08:13:06;;;;;;;2.07;0.80;;;20.60;68.30;;;;;;6112292;23;20917;-67
2023/08/28 08:15:37;;;;;;;1.20;0.90;;;20.60;68.30;;;;;;6137751;23;20783;-67
2023/08/28 08:18:06;;;;;;;2.00;1.00;;;20.60;68.30;;;;;;6142075;23;20417;-67
2023/08/28 08:20:34;;;;;;;1.37;1.03;;;20.60;68.30;;;;;;6141019;23;20441;-67
2023/08/28 08:23:03;;;;;;;1.20;1.00;;;20.60;68.30;;;;;;6141347;23;20456;-67
2023/08/28 08:25:33;;;;;;;1.10;0.80;;;20.60;68.30;;;;;;6142386;23;20479;-68
2023/08/28 08:28:03;;;;;;;1.10;0.70;;;20.60;68.30;;;;;;6141393;23;20766;-67
2023/08/28 08:30:32;;;;;;;1.63;0.93;;;20.60;68.20;;;;;;6140666;23;20441;-67
2023/08/28 08:33:01;;;;;;;1.60;1.20;;;20.70;68.40;;;;;;6142173;23;20377;-67
2023/08/28 08:35:29;;;;;;;1.00;0.70;;;20.60;68.30;;;;;;6140851;23;20433;-67
2023/08/28 08:37:58;;;;;;;1.90;1.20;;;20.60;68.40;;;;;;6141077;23;20404;-67
2023/08/28 08:40:27;;;;;;;1.73;1.17;;;20.60;68.20;;;;;;6116262;23;20206;-67
2023/08/28 08:42:56;;;;;;;3.30;0.77;;;20.60;68.10;;;;;;6117068;23;20455;-67
2023/08/28 08:45:30;;;;;;;3.67;1.13;;;20.60;68.30;;;;;;6139581;23;20444;-67
2023/08/28 08:48:01;;;;;;;1.67;1.00;;;20.60;68.20;;;;;;6142507;23;20467;-67
2023/08/28 08:50:31;;;;;;;3.50;1.70;;;20.60;68.30;;;;;;6138488;23;20923;-67
2023/08/28 08:53:06;;;;;;;3.47;2.27;;;20.60;68.70;;;;;;6141699;23;20987;-67
2023/08/28 08:55:41;;;;;;;4.73;2.30;;;20.50;69.10;;;;;;6141071;23;20426;-67
2023/08/28 08:58:11;;;;;;;9.43;3.43;;;20.50;68.40;;;;;;6143608;23;20417;-67
2023/08/28 09:00:43;;;;;;;4.23;2.73;;;20.40;69.80;;;;;;6140141;23;20438;-67
2023/08/28 09:03:14;;;;;;;6.37;2.60;;;20.30;71.80;;;;;;6140660;23;20381;-66
2023/08/28 09:05:44;;;;;;;4.35;2.63;;;20.30;75.50;;;;;;6138088;23;20421;-67
2023/08/28 09:08:15;;;;;;;2.83;2.20;;;20.20;74.70;;;;;;6141587;23;20688;-67
2023/08/28 09:10:45;;;;;;;4.47;1.97;;;20.30;74.00;;;;;;6140134;23;20470;-67
2023/08/28 09:13:13;;;;;;;3.63;2.43;;;20.30;73.40;;;;;;6115674;23;20503;-67
2023/08/28 09:15:42;;;;;;;4.87;2.00;;;20.30;72.80;;;;;;6141323;23;20434;-67
2023/08/28 09:18:10;;;;;;;3.30;1.60;;;20.40;72.60;;;;;;6141900;23;20940;-69
2023/08/28 09:20:40;;;;;;;3.78;2.15;;;20.40;72.30;;;;;;6138908;23;20413;-67
2023/08/28 09:23:08;;;;;;;2.77;1.30;;;20.40;71.20;;;;;;6140742;23;20518;-69
2023/08/28 09:25:39;;;;;;;2.93;1.63;;;20.50;71.20;;;;;;6140758;23;20540;-73
2023/08/28 09:28:08;;;;;;;2.77;1.50;;;20.50;71.10;;;;;;6140853;23;20417;-73
2023/08/28 09:30:37;;;;;;;4.13;1.50;;;20.50;71.00;;;;;;6141099;23;20440;-73
2023/08/28 09:33:07;;;;;;;2.13;1.60;;;20.50;71.60;;;;;;6141468;23;20398;-73
2023/08/28 09:35:40;;;;;;;2.00;1.43;;;20.50;71.00;;;;;;6141653;23;20430;-72
2023/08/28 09:38:09;;;;;;;3.23;1.63;;;20.50;71.00;;;;;;6141930;23;20402;-73
2023/08/28 09:40:40;;;;;;;1.63;1.30;;;20.50;70.90;;;;;;6140855;23;20469;-73
2023/08/28 09:43:12;;;;;;;3.20;1.40;;;20.50;70.90;;;;;;6141604;23;20714;-73
2023/08/28 09:45:42;;;;;;;1.83;1.20;;;20.50;70.90;;;;;;6141037;23;20862;-73
2023/08/28 09:48:11;;;;;;;2.30;1.80;;;20.50;71.00;;;;;;6142041;23;20746;-73
2023/08/28 09:50:43;;;;;;;1.63;1.10;;;20.50;70.90;;;;;;6140204;23;20437;-73
2023/08/28 09:53:12;;;;;;;2.53;1.33;;;20.50;70.90;;;;;;6141468;23;20719;-73
2023/08/28 09:55:46;;;;;;;2.47;1.63;;;20.50;71.00;;;;;;6141572;23;20434;-73
2023/08/28 09:58:16;;;;;;;2.07;1.20;;;20.50;70.90;;;;;;6141277;23;20474;-73
2023/08/28 10:00:44;;;;;;;2.00;1.53;;;20.50;70.90;;;;;;6140446;23;20990;-73
2023/08/28 10:03:14;;;;;;;2.10;1.30;;;20.50;71.00;;;;;;6140972;23;20405;-73
2023/08/28 10:05:46;;;;;;;2.53;1.40;;;20.50;71.20;;;;;;6139572;23;20453;-73
2023/08/28 10:08:16;;;;;;;2.30;1.33;;;20.50;71.20;;;;;;6143728;23;20782;-73
2023/08/28 10:10:46;;;;;;;2.47;1.17;;;20.50;71.30;;;;;;6141108;23;20940;-73
2023/08/28 10:13:16;;;;;;;4.67;1.30;;;20.50;71.20;;;;;;6140816;23;20382;-73
2023/08/28 10:15:55;;;;;;;2.00;1.20;;;20.50;71.00;;;;;;6140367;23;20536;-73
2023/08/28 10:18:31;;;;;;;1.60;1.13;;;20.50;71.10;;;;;;6141558;23;20421;-73
2023/08/28 10:21:01;;;;;;;3.83;1.50;;;20.50;71.20;;;;;;6141151;23;20822;-73
2023/08/28 10:23:31;;;;;;;2.53;1.00;;;20.50;71.10;;;;;;6141543;23;20401;-73
2023/08/28 10:26:02;;;;;;;1.50;1.20;;;20.50;71.00;;;;;;6141019;23;20436;-72
2023/08/28 10:28:39;;;;;;;2.10;1.53;;;20.50;71.20;;;;;;5065444;27;20558;-51
2023/08/28 10:31:09;;;;;;;2.70;1.20;;;20.50;71.10;;;;;;5062520;28;20454;-50
2023/08/28 10:33:38;;;;;;;3.43;1.80;;;20.50;72.50;;;;;;5059924;28;20974;-51
2023/08/28 10:36:09;;;;;;;7.50;2.43;;;20.50;71.00;;;;;;5063203;28;20437;-50
2023/08/28 10:38:53;;;;;;;7.90;2.70;;;20.50;70.70;;;;;;5045695;28;21007;-51
2023/08/28 10:41:28;;;;;;;5.00;2.80;;;20.40;73.10;;;;;;5062848;28;20478;-51
2023/08/28 10:44:00;;;;;;;3.80;1.83;;;20.40;72.20;;;;;;5059539;28;20453;-50
2023/08/28 10:46:29;;;;;;;3.33;1.73;;;20.50;72.00;;;;;;5060109;28;20473;-50
2023/08/28 10:48:58;;;;;;;3.73;1.80;;;20.50;71.80;;;;;;5056461;28;20463;-51
2023/08/28 10:51:35;;;;;;;3.33;1.67;;;20.60;71.60;;;;;;5068800;28;20435;-51
2023/08/28 10:54:08;;;;;;;4.50;1.90;;;20.60;71.40;;;;;;5052023;28;20806;-51
2023/08/28 10:56:38;;;;;;;2.83;1.60;;;20.60;71.40;;;;;;5040511;28;20986;-51
2023/08/28 10:59:25;;;;;;;1.60;1.40;;;20.70;71.30;;;;;;5036141;28;20542;-51
2023/08/28 11:01:56;;;;;;;3.17;1.60;;;20.70;71.30;;;;;;5049950;28;22586;-51
2023/08/28 11:04:32;;;;;;;2.57;1.80;;;20.70;71.20;;;;;;5057040;28;20454;-51
2023/08/28 11:07:01;;;;;;;2.90;1.33;;;20.80;71.20;;;;;;5068318;28;20842;-52
2023/08/28 11:09:37;;;;;;;3.90;2.03;;;20.80;71.10;;;;;;5056049;28;20742;-51
2023/08/28 11:12:25;;;;;;;4.00;1.70;;;20.80;71.00;;;;;;5059768;28;20465;-52
2023/08/28 11:15:03;;;;;;;2.60;1.40;;;20.80;71.00;;;;;;5054597;28;20565;-51
2023/08/28 11:17:33;;;;;;;2.13;1.53;;;20.80;71.00;;;;;;5055583;28;20540;-52
2023/08/28 11:20:07;;;;;;;1.63;1.30;;;20.80;70.90;;;;;;5075022;28;20906;-52
2023/08/28 11:22:37;;;;;;;4.97;1.93;;;20.80;71.00;;;;;;5060032;28;20487;-50
2023/08/28 11:25:07;;;;;;;2.70;1.50;;;20.90;71.10;;;;;;5070100;28;20529;-50
2023/08/28 11:27:43;;;;;;;4.13;1.37;;;20.80;71.10;;;;;;5055684;28;20506;-52
2023/08/28 11:30:14;;;;;;;2.57;1.90;;;20.90;70.80;;;;;;5068784;28;20870;-51
2023/08/28 11:32:45;;;;;;;2.50;2.00;;;20.80;69.40;;;;;;5077834;28;20485;-52
2023/08/28 11:35:17;;;;;;;2.90;2.00;;;20.80;69.40;;;;;;5060026;28;20466;-50
2023/08/28 11:37:47;;;;;;;1.93;1.73;;;20.80;69.50;;;;;;5057777;28;20818;-51
2023/08/28 11:40:18;;;;;;;3.77;2.07;;;20.80;69.60;;;;;;5049433;28;20493;-50
2023/08/28 11:42:48;;;;;;;2.37;1.73;;;20.80;69.90;;;;;;5046597;28;20426;-50
2023/08/28 11:45:22;;;;;;;3.10;1.70;;;20.80;70.00;;;;;;5047407;28;20469;-53
2023/08/28 11:47:54;;;;;;;1.77;1.67;;;20.80;70.20;;;;;;5051407;28;20462;-51
2023/08/28 11:50:26;;;;;;;2.73;1.40;;;20.80;70.40;;;;;;5047683;28;20521;-51
2023/08/28 11:52:55;;;;;;;1.93;1.57;;;20.80;70.60;;;;;;5054622;28;20419;-52
2023/08/28 11:55:23;;;;;;;1.93;1.40;;;20.80;70.80;;;;;;5048445;28;20474;-51
2023/08/28 11:57:52;;;;;;;2.47;1.53;;;20.80;70.90;;;;;;5050281;28;20533;-52
2023/08/28 12:00:23;;;;;;;1.60;1.40;;;20.80;71.00;;;;;;5047452;28;20483;-51
2023/08/28 12:02:53;;;;;;;2.33;1.70;;;20.80;71.00;;;;;;5049446;28;20438;-51
2023/08/28 12:05:22;;;;;;;2.33;1.57;;;20.80;71.10;;;;;;5046466;28;20475;-52
2023/08/28 12:07:50;;;;;;;2.37;1.73;;;20.80;71.20;;;;;;5049406;28;20474;-51
2023/08/28 12:10:21;;;;;;;4.87;1.93;;;20.80;71.20;;;;;;5049301;28;20461;-51
2023/08/28 12:12:55;;;;;;;1.97;1.37;;;20.80;71.30;;;;;;5051116;28;20989;-51
2023/08/28 12:15:34;;;;;;;4.00;1.73;;;20.80;71.50;;;;;;5053421;28;20551;-51
2023/08/28 12:18:04;;;;;;;2.47;1.80;;;20.80;71.40;;;;;;5059780;28;20469;-51
2023/08/28 12:20:33;;;;;;;2.30;1.27;;;20.80;71.60;;;;;;5047381;28;20567;-51
2023/08/28 12:23:02;;;;;;;2.13;1.37;;;20.80;71.60;;;;;;5053296;28;20436;-51
2023/08/28 12:25:34;;;;;;;1.50;1.30;;;20.80;71.70;;;;;;5046661;28;20480;-50
2023/08/28 12:28:10;;;;;;;1.70;1.30;;;20.80;71.80;;;;;;5049003;28;20479;-51
2023/08/28 12:30:40;;;;;;;1.83;1.47;;;20.80;71.90;;;;;;5041635;28;20467;-51
2023/08/28 12:33:09;;;;;;;1.73;1.60;;;20.80;72.10;;;;;;5048178;28;20492;-51
2023/08/28 12:35:39;;;;;;;2.80;1.30;;;20.80;72.10;;;;;;5051788;28;20539;-51
2023/08/28 12:38:08;;;;;;;1.97;1.63;;;20.80;72.10;;;;;;5049442;28;20459;-51
2023/08/28 12:40:40;;;;;;;2.40;1.50;;;20.80;72.10;;;;;;5048458;28;20502;-51
2023/08/28 12:43:10;;;;;;;3.60;1.80;;;20.80;72.30;;;;;;5049011;28;20540;-51
2023/08/28 12:45:41;;;;;;;2.70;1.70;;;20.80;72.20;;;;;;5046825;28;20481;-51
2023/08/28 12:48:10;;;;;;;2.47;2.00;;;20.80;72.30;;;;;;5048879;28;20536;-52
2023/08/28 12:50:39;;;;;;;1.50;1.20;;;20.80;71.90;;;;;;5049306;28;20470;-51
2023/08/28 12:53:07;;;;;;;1.87;1.50;;;20.80;72.20;;;;;;5051750;28;20443;-51
2023/08/28 12:55:36;;;;;;;1.23;1.10;;;20.80;72.20;;;;;;5048390;28;21118;-51
2023/08/28 12:58:05;;;;;;;1.57;1.20;;;20.80;72.40;;;;;;5048843;28;20451;-51
2023/08/28 13:00:33;;;;;;;2.90;1.37;;;20.80;72.30;;;;;;5047267;28;21034;-51
2023/08/28 13:03:04;;;;;;;1.37;1.20;;;20.80;72.50;;;;;;5045993;28;20509;-51